LVIRU SABE-SAZM
Flight info
| Callsign | LVIRU |
|---|---|
| Flight time | 0h 38m |
| Altitude | 24000 |
| Route | SABE DCT GBE W29 VOTRA DCT SAZM |
| Aircraft | LJ35/L-S/C |
Departure
| Time | 2026-05-07 22:47 |
|---|---|
| Airport | Aeroparque Jorge Newbery (SABE) |
Arrival
| Time | 2026-05-07 23:25 |
|---|---|
| Airport | Ástor Piazzola International Airport (SAZM) |
| Time | Latitude | Longitude | Altitude | Speed | Heading |
|---|---|---|---|---|---|
| 2026-05-07 22:31 | -34.56481 | -58.40874 | 21 ft | 0 kts | 34° |
| 2026-05-07 22:40 | -34.56480 | -58.40874 | 21 ft | 0 kts | 34° |
| 2026-05-07 22:41 | -34.56478 | -58.40870 | 21 ft | 0 kts | 72° |
| 2026-05-07 22:41 | -34.56479 | -58.40865 | 21 ft | 0 kts | 108° |
| 2026-05-07 22:43 | -34.56486 | -58.40848 | 23 ft | 6 kts | 120° |
| 2026-05-07 22:43 | -34.56483 | -58.40778 | 21 ft | 0 kts | 64° |
| 2026-05-07 22:45 | -34.56477 | -58.40764 | 22 ft | 7 kts | 64° |
| 2026-05-07 22:45 | -34.56428 | -58.40668 | 19 ft | 11 kts | 22° |
| 2026-05-07 22:45 | -34.56390 | -58.40679 | 19 ft | 7 kts | 260° |
| 2026-05-07 22:46 | -34.56379 | -58.40768 | 20 ft | 11 kts | 304° |
| 2026-05-07 22:46 | -34.56262 | -58.40972 | 23 ft | 73 kts | 304° |
| 2026-05-07 22:46 | -34.55781 | -58.41822 | 53 ft | 161 kts | 302° |
| 2026-05-07 22:46 | -34.55032 | -58.43054 | 515 ft | 202 kts | 307° |
| 2026-05-07 22:47 | -34.54186 | -58.44469 | 1529 ft | 198 kts | 311° |
| 2026-05-07 22:47 | -34.53106 | -58.45319 | 2909 ft | 184 kts | 344° |
| 2026-05-07 22:47 | -34.51799 | -58.45139 | 3953 ft | 205 kts | 15° |
| 2026-05-07 22:47 | -34.50629 | -58.43988 | 4843 ft | 231 kts | 41° |
| 2026-05-07 22:48 | -34.49775 | -58.42103 | 5018 ft | 278 kts | 67° |
| 2026-05-07 22:48 | -34.49647 | -58.39588 | 4987 ft | 323 kts | 94° |
| 2026-05-07 22:48 | -34.50313 | -58.36888 | 4928 ft | 353 kts | 109° |
| 2026-05-07 22:48 | -34.51343 | -58.34095 | 4947 ft | 368 kts | 118° |
| 2026-05-07 22:49 | -34.52965 | -58.31704 | 5456 ft | 372 kts | 141° |
| 2026-05-07 22:49 | -34.55204 | -58.30182 | 6160 ft | 370 kts | 163° |
| 2026-05-07 22:49 | -34.57723 | -58.29674 | 6588 ft | 357 kts | 184° |
| 2026-05-07 22:49 | -34.59968 | -58.30042 | 6587 ft | 308 kts | 201° |
| 2026-05-07 22:50 | -34.62088 | -58.30805 | 7199 ft | 318 kts | 202° |
| 2026-05-07 22:50 | -34.64268 | -58.31410 | 8276 ft | 327 kts | 194° |
| 2026-05-07 22:50 | -34.66549 | -58.31676 | 9216 ft | 337 kts | 188° |
| 2026-05-07 22:50 | -34.68922 | -58.31852 | 10129 ft | 341 kts | 189° |
| 2026-05-07 22:51 | -34.71286 | -58.32164 | 11078 ft | 341 kts | 193° |
| 2026-05-07 22:51 | -34.73619 | -58.32539 | 11988 ft | 343 kts | 193° |
| 2026-05-07 22:51 | -34.76000 | -58.32874 | 12855 ft | 346 kts | 192° |
| 2026-05-07 22:51 | -34.78409 | -58.33178 | 13699 ft | 348 kts | 192° |
| 2026-05-07 22:52 | -34.80847 | -58.33503 | 14387 ft | 353 kts | 193° |
| 2026-05-07 22:52 | -34.83283 | -58.33844 | 15054 ft | 358 kts | 193° |
| 2026-05-07 22:52 | -34.85779 | -58.34187 | 15734 ft | 363 kts | 193° |
| 2026-05-07 22:52 | -34.88312 | -58.34528 | 16413 ft | 368 kts | 193° |
| 2026-05-07 22:53 | -34.90882 | -58.34877 | 17086 ft | 373 kts | 193° |
| 2026-05-07 22:53 | -34.93452 | -58.35228 | 17737 ft | 377 kts | 194° |
| 2026-05-07 22:53 | -34.96090 | -58.35589 | 18338 ft | 382 kts | 194° |
| 2026-05-07 22:53 | -34.98748 | -58.35951 | 18938 ft | 385 kts | 194° |
| 2026-05-07 22:54 | -35.01401 | -58.36313 | 19519 ft | 389 kts | 194° |
| 2026-05-07 22:54 | -35.04107 | -58.36683 | 20096 ft | 392 kts | 193° |
| 2026-05-07 22:54 | -35.06837 | -58.37056 | 20680 ft | 395 kts | 193° |
| 2026-05-07 22:54 | -35.09582 | -58.37432 | 21226 ft | 399 kts | 193° |
| 2026-05-07 22:55 | -35.12362 | -58.37813 | 21768 ft | 402 kts | 193° |
| 2026-05-07 22:55 | -35.15129 | -58.38192 | 22270 ft | 405 kts | 193° |
| 2026-05-07 22:55 | -35.17940 | -58.38577 | 22790 ft | 407 kts | 193° |
| 2026-05-07 22:55 | -35.20764 | -58.38964 | 23255 ft | 410 kts | 193° |
| 2026-05-07 22:56 | -35.23622 | -58.39357 | 23596 ft | 415 kts | 193° |
| 2026-05-07 22:56 | -35.26534 | -58.39763 | 23607 ft | 427 kts | 193° |
| 2026-05-07 22:56 | -35.29529 | -58.40176 | 23621 ft | 437 kts | 193° |
| 2026-05-07 22:56 | -35.32590 | -58.40592 | 23624 ft | 444 kts | 193° |
| 2026-05-07 22:57 | -35.35645 | -58.41011 | 23624 ft | 450 kts | 193° |
| 2026-05-07 22:57 | -35.38779 | -58.41444 | 23609 ft | 454 kts | 193° |
| 2026-05-07 22:57 | -35.41948 | -58.41881 | 23620 ft | 457 kts | 193° |
| 2026-05-07 22:57 | -35.45129 | -58.42319 | 23614 ft | 459 kts | 193° |
| 2026-05-07 22:58 | -35.48280 | -58.42754 | 23615 ft | 461 kts | 193° |
| 2026-05-07 22:58 | -35.51470 | -58.43196 | 23606 ft | 462 kts | 193° |
| 2026-05-07 22:58 | -35.54669 | -58.43638 | 23608 ft | 463 kts | 193° |
| 2026-05-07 22:58 | -35.57874 | -58.44082 | 23611 ft | 464 kts | 193° |
| 2026-05-07 22:59 | -35.61089 | -58.44528 | 23611 ft | 464 kts | 193° |
| 2026-05-07 22:59 | -35.64307 | -58.44974 | 23600 ft | 465 kts | 193° |
| 2026-05-07 22:59 | -35.67506 | -58.45418 | 23604 ft | 465 kts | 193° |
| 2026-05-07 22:59 | -35.70738 | -58.45867 | 23606 ft | 465 kts | 193° |
| 2026-05-07 23:00 | -35.74001 | -58.46126 | 23602 ft | 473 kts | 185° |
| 2026-05-07 23:00 | -35.77269 | -58.45706 | 23581 ft | 481 kts | 174° |
| 2026-05-07 23:00 | -35.80539 | -58.44704 | 23589 ft | 484 kts | 169° |
| 2026-05-07 23:00 | -35.83800 | -58.43629 | 23592 ft | 484 kts | 170° |
| 2026-05-07 23:01 | -35.87069 | -58.42600 | 23590 ft | 484 kts | 171° |
| 2026-05-07 23:01 | -35.90339 | -58.41572 | 23582 ft | 485 kts | 170° |
| 2026-05-07 23:01 | -35.93560 | -58.40499 | 23586 ft | 485 kts | 169° |
| 2026-05-07 23:01 | -35.96820 | -58.39401 | 23586 ft | 486 kts | 169° |
| 2026-05-07 23:02 | -36.00068 | -58.38339 | 23591 ft | 476 kts | 170° |
| 2026-05-07 23:02 | -36.03242 | -58.37311 | 24124 ft | 468 kts | 170° |
| 2026-05-07 23:02 | -36.06376 | -58.36282 | 23577 ft | 462 kts | 169° |
| 2026-05-07 23:02 | -36.09481 | -58.35253 | 23578 ft | 458 kts | 169° |
| 2026-05-07 23:03 | -36.12550 | -58.34242 | 23578 ft | 455 kts | 169° |
| 2026-05-07 23:03 | -36.15575 | -58.33250 | 23588 ft | 453 kts | 169° |
| 2026-05-07 23:03 | -36.18626 | -58.32245 | 23586 ft | 452 kts | 169° |
| 2026-05-07 23:03 | -36.21661 | -58.31241 | 23583 ft | 451 kts | 169° |
| 2026-05-07 23:04 | -36.24694 | -58.30239 | 23573 ft | 450 kts | 169° |
| 2026-05-07 23:04 | -36.27722 | -58.29238 | 23590 ft | 449 kts | 169° |
| 2026-05-07 23:04 | -36.30726 | -58.28245 | 23580 ft | 449 kts | 169° |
| 2026-05-07 23:04 | -36.33755 | -58.27242 | 23580 ft | 449 kts | 169° |
| 2026-05-07 23:05 | -36.36777 | -58.26240 | 23577 ft | 449 kts | 169° |
| 2026-05-07 23:05 | -36.39795 | -58.25239 | 23585 ft | 449 kts | 169° |
| 2026-05-07 23:05 | -36.42776 | -58.24250 | 23577 ft | 449 kts | 169° |
| 2026-05-07 23:05 | -36.45796 | -58.23247 | 23579 ft | 449 kts | 169° |
| 2026-05-07 23:06 | -36.48827 | -58.22239 | 23579 ft | 449 kts | 169° |
| 2026-05-07 23:06 | -36.51850 | -58.21233 | 23583 ft | 449 kts | 169° |
| 2026-05-07 23:06 | -36.54870 | -58.20228 | 23574 ft | 449 kts | 169° |
| 2026-05-07 23:06 | -36.57886 | -58.19223 | 23572 ft | 449 kts | 169° |
| 2026-05-07 23:07 | -36.60897 | -58.18174 | 23564 ft | 451 kts | 165° |
| 2026-05-07 23:07 | -36.63762 | -58.16624 | 23571 ft | 454 kts | 157° |
| 2026-05-07 23:07 | -36.66568 | -58.14789 | 23566 ft | 456 kts | 154° |
| 2026-05-07 23:07 | -36.69356 | -58.12891 | 23565 ft | 455 kts | 155° |
| 2026-05-07 23:08 | -36.72190 | -58.11110 | 23562 ft | 455 kts | 157° |
| 2026-05-07 23:08 | -36.75037 | -58.09384 | 23566 ft | 455 kts | 156° |
| 2026-05-07 23:08 | -36.77872 | -58.07587 | 23560 ft | 456 kts | 155° |
| 2026-05-07 23:08 | -36.80650 | -58.05777 | 23558 ft | 456 kts | 155° |
| 2026-05-07 23:09 | -36.83474 | -58.03973 | 23557 ft | 456 kts | 156° |
| 2026-05-07 23:09 | -36.86309 | -58.02195 | 23566 ft | 456 kts | 156° |
| 2026-05-07 23:09 | -36.89146 | -58.00396 | 23550 ft | 456 kts | 155° |
| 2026-05-07 23:09 | -36.91974 | -57.98579 | 23548 ft | 457 kts | 155° |
| 2026-05-07 23:10 | -36.94811 | -57.96763 | 23545 ft | 457 kts | 156° |
| 2026-05-07 23:10 | -36.97646 | -57.94960 | 23549 ft | 457 kts | 156° |
| 2026-05-07 23:10 | -37.00449 | -57.93173 | 23542 ft | 457 kts | 155° |
| 2026-05-07 23:10 | -37.03287 | -57.91355 | 23539 ft | 458 kts | 155° |
| 2026-05-07 23:11 | -37.06126 | -57.89535 | 23540 ft | 458 kts | 155° |
| 2026-05-07 23:11 | -37.08960 | -57.87721 | 23542 ft | 458 kts | 155° |
| 2026-05-07 23:11 | -37.11798 | -57.85903 | 23530 ft | 458 kts | 155° |
| 2026-05-07 23:11 | -37.14647 | -57.84073 | 23530 ft | 458 kts | 155° |
| 2026-05-07 23:12 | -37.17467 | -57.82261 | 23530 ft | 458 kts | 155° |
| 2026-05-07 23:12 | -37.20288 | -57.80447 | 23534 ft | 447 kts | 155° |
| 2026-05-07 23:12 | -37.23007 | -57.78694 | 23039 ft | 434 kts | 155° |
| 2026-05-07 23:12 | -37.25694 | -57.76967 | 21807 ft | 431 kts | 154° |
| 2026-05-07 23:13 | -37.28337 | -57.75267 | 20845 ft | 421 kts | 154° |
| 2026-05-07 23:13 | -37.30891 | -57.73619 | 19912 ft | 412 kts | 154° |
| 2026-05-07 23:13 | -37.33431 | -57.71978 | 19007 ft | 404 kts | 153° |
| 2026-05-07 23:13 | -37.35917 | -57.70373 | 18137 ft | 396 kts | 153° |
| 2026-05-07 23:14 | -37.38352 | -57.68800 | 17208 ft | 389 kts | 153° |
| 2026-05-07 23:14 | -37.40705 | -57.67277 | 16281 ft | 383 kts | 153° |
| 2026-05-07 23:14 | -37.43057 | -57.65755 | 15376 ft | 377 kts | 153° |
| 2026-05-07 23:14 | -37.45381 | -57.64250 | 14485 ft | 372 kts | 153° |
| 2026-05-07 23:15 | -37.47674 | -57.62764 | 13666 ft | 368 kts | 153° |
| 2026-05-07 23:15 | -37.49946 | -57.61290 | 12811 ft | 363 kts | 153° |
| 2026-05-07 23:15 | -37.52179 | -57.59840 | 11985 ft | 357 kts | 153° |
| 2026-05-07 23:15 | -37.54320 | -57.58450 | 11213 ft | 352 kts | 153° |
| 2026-05-07 23:16 | -37.56485 | -57.57043 | 10457 ft | 347 kts | 153° |
| 2026-05-07 23:16 | -37.58620 | -57.55654 | 9748 ft | 342 kts | 153° |
| 2026-05-07 23:16 | -37.60723 | -57.54285 | 9025 ft | 337 kts | 154° |
| 2026-05-07 23:16 | -37.62798 | -57.52935 | 8286 ft | 333 kts | 154° |
| 2026-05-07 23:17 | -37.64847 | -57.51599 | 7582 ft | 329 kts | 154° |
| 2026-05-07 23:17 | -37.66867 | -57.50282 | 6931 ft | 324 kts | 154° |
| 2026-05-07 23:17 | -37.68834 | -57.48999 | 6314 ft | 319 kts | 154° |
| 2026-05-07 23:17 | -37.70799 | -57.47716 | 5675 ft | 316 kts | 154° |
| 2026-05-07 23:18 | -37.72741 | -57.46448 | 5045 ft | 312 kts | 154° |
| 2026-05-07 23:18 | -37.74654 | -57.45197 | 4471 ft | 307 kts | 154° |
| 2026-05-07 23:18 | -37.75906 | -57.44379 | 4068 ft | 305 kts | 153° |
| 2026-05-07 23:18 | -37.77794 | -57.43146 | 3450 ft | 304 kts | 152° |
| 2026-05-07 23:19 | -37.79666 | -57.41918 | 2891 ft | 301 kts | 152° |
| 2026-05-07 23:19 | -37.82090 | -57.40333 | 2598 ft | 282 kts | 151° |
| 2026-05-07 23:19 | -37.83222 | -57.39594 | 2667 ft | 270 kts | 150° |
| 2026-05-07 23:19 | -37.84906 | -57.38487 | 2775 ft | 277 kts | 151° |
| 2026-05-07 23:20 | -37.86658 | -57.37333 | 2892 ft | 288 kts | 150° |
| 2026-05-07 23:20 | -37.88453 | -57.36154 | 2986 ft | 298 kts | 151° |
| 2026-05-07 23:20 | -37.90335 | -57.34921 | 2996 ft | 308 kts | 151° |
| 2026-05-07 23:20 | -37.92307 | -57.33903 | 2991 ft | 297 kts | 167° |
| 2026-05-07 23:21 | -37.94284 | -57.33756 | 2981 ft | 276 kts | 186° |
| 2026-05-07 23:21 | -37.96105 | -57.34319 | 2986 ft | 265 kts | 204° |
| 2026-05-07 23:21 | -37.97651 | -57.35437 | 2984 ft | 254 kts | 219° |
| 2026-05-07 23:21 | -37.98940 | -57.36921 | 2973 ft | 245 kts | 236° |
| 2026-05-07 23:22 | -37.99797 | -57.38738 | 2978 ft | 236 kts | 252° |
| 2026-05-07 23:22 | -38.00215 | -57.40711 | 2960 ft | 225 kts | 268° |
| 2026-05-07 23:22 | -38.00220 | -57.42646 | 2498 ft | 221 kts | 283° |
| 2026-05-07 23:22 | -37.99811 | -57.44507 | 2180 ft | 218 kts | 298° |
| 2026-05-07 23:23 | -37.99107 | -57.46115 | 2251 ft | 201 kts | 308° |
| 2026-05-07 23:23 | -37.98389 | -57.47526 | 2167 ft | 181 kts | 307° |
| 2026-05-07 23:23 | -37.97702 | -57.48888 | 1626 ft | 189 kts | 307° |
| 2026-05-07 23:23 | -37.96980 | -57.50290 | 1163 ft | 190 kts | 308° |
| 2026-05-07 23:24 | -37.96244 | -57.51701 | 832 ft | 190 kts | 305° |
| 2026-05-07 23:24 | -37.95594 | -57.53020 | 652 ft | 164 kts | 302° |
| 2026-05-07 23:24 | -37.95014 | -57.54170 | 455 ft | 146 kts | 300° |
| 2026-05-07 23:24 | -37.94480 | -57.55221 | 264 ft | 142 kts | 300° |
| 2026-05-07 23:25 | -37.93939 | -57.56299 | 68 ft | 147 kts | 301° |
| 2026-05-07 23:25 | -37.93427 | -57.57327 | 45 ft | 132 kts | 300° |
| 2026-05-07 23:25 | -37.93051 | -57.58097 | 48 ft | 57 kts | 301° |
| 2026-05-07 23:25 | -37.92930 | -57.58324 | 46 ft | 10 kts | 308° |
| 2026-05-07 23:26 | -37.92941 | -57.58335 | 46 ft | 4 kts | 103° |
| 2026-05-07 23:26 | -37.92962 | -57.58256 | 46 ft | 15 kts | 114° |
| 2026-05-07 23:26 | -37.93037 | -57.58108 | 48 ft | 25 kts | 123° |
| 2026-05-07 23:26 | -37.93132 | -57.57965 | 48 ft | 16 kts | 184° |
| 2026-05-07 23:27 | -37.93366 | -57.58029 | 48 ft | 20 kts | 191° |
| 2026-05-07 23:27 | -37.93432 | -57.57974 | 48 ft | 10 kts | 107° |
| 2026-05-07 23:27 | -37.93425 | -57.57964 | 48 ft | 2 kts | 341° |
| 2026-05-07 23:28 | -37.93420 | -57.57968 | 48 ft | 0 kts | 305° |